createdAt,value
2023-08-06T00:00:56.435Z,4.90
2023-08-06T00:03:26.695Z,6.30
2023-08-06T00:05:55.114Z,5.70
2023-08-06T00:08:23.543Z,6.97
2023-08-06T00:10:51.954Z,3.87
2023-08-06T00:13:20.406Z,4.80
2023-08-06T00:15:48.789Z,5.33
2023-08-06T00:18:17.216Z,5.10
2023-08-06T00:20:47.000Z,6.17
2023-08-06T00:23:15.434Z,6.20
2023-08-06T00:25:43.841Z,5.50
2023-08-06T00:28:12.324Z,3.80
2023-08-06T00:30:40.763Z,9.73
2023-08-06T00:33:09.250Z,5.00
2023-08-06T00:35:37.638Z,6.00
2023-08-06T00:38:07.358Z,6.40
2023-08-06T00:40:35.733Z,8.53
2023-08-06T00:43:04.140Z,8.50
2023-08-06T00:45:32.766Z,5.20
2023-08-06T00:48:01.154Z,5.17
2023-08-06T00:50:29.642Z,5.30
2023-08-06T00:52:58.197Z,6.03
2023-08-06T00:55:28.003Z,16.17
2023-08-06T00:57:58.155Z,8.50
2023-08-06T01:00:27.139Z,7.43
2023-08-06T01:02:56.031Z,12.20
2023-08-06T01:05:25.059Z,11.60
2023-08-06T01:07:59.013Z,9.50
2023-08-06T01:10:33.595Z,7.07
2023-08-06T01:13:06.045Z,15.97
2023-08-06T01:15:36.082Z,12.97
2023-08-06T01:18:04.975Z,6.07
2023-08-06T01:20:34.832Z,5.73
2023-08-06T01:23:03.219Z,6.00
2023-08-06T01:25:35.793Z,9.23
2023-08-06T01:28:07.828Z,4.60
2023-08-06T01:30:37.882Z,6.17
2023-08-06T01:33:07.535Z,23.17
2023-08-06T01:35:38.618Z,5.67
2023-08-06T01:38:07.043Z,8.60
2023-08-06T01:40:36.246Z,6.80
2023-08-06T01:43:04.591Z,7.00
2023-08-06T01:45:33.026Z,7.57
2023-08-06T01:48:01.423Z,5.83
2023-08-06T01:50:29.829Z,3.93
2023-08-06T01:52:59.591Z,4.40
2023-08-06T01:55:27.935Z,5.27
2023-08-06T01:57:56.332Z,5.87
2023-08-06T02:00:24.664Z,4.77
2023-08-06T02:02:53.084Z,6.63
2023-08-06T02:05:21.477Z,3.67
2023-08-06T02:07:49.837Z,5.53
2023-08-06T02:10:19.582Z,3.80
2023-08-06T02:12:47.961Z,3.67
2023-08-06T02:15:16.442Z,6.33
2023-08-06T02:17:44.861Z,9.40
2023-08-06T02:20:13.622Z,4.70
2023-08-06T02:22:42.019Z,11.83
2023-08-06T02:25:10.661Z,3.93
2023-08-06T02:27:41.282Z,4.17
2023-08-06T02:30:09.939Z,6.37
2023-08-06T02:32:38.273Z,4.70
2023-08-06T02:35:06.937Z,5.77
2023-08-06T02:37:36.268Z,5.67
2023-08-06T02:40:04.887Z,4.03
2023-08-06T02:42:33.294Z,5.40
2023-08-06T02:45:03.378Z,5.10
2023-08-06T02:47:33.082Z,4.07
2023-08-06T02:50:01.600Z,6.90
2023-08-06T02:52:29.970Z,7.10
2023-08-06T02:55:00.917Z,4.87
2023-08-06T02:57:29.308Z,4.13
2023-08-06T02:59:57.849Z,3.90
2023-08-06T03:02:27.635Z,8.33
2023-08-06T03:04:56.248Z,4.50
2023-08-06T03:07:24.673Z,6.20
2023-08-06T03:09:53.237Z,3.03
2023-08-06T03:12:21.731Z,3.60
2023-08-06T03:14:50.102Z,4.77
2023-08-06T03:17:18.423Z,2.50
2023-08-06T03:19:48.144Z,3.57
2023-08-06T03:22:16.533Z,5.73
2023-08-06T03:24:44.933Z,4.97
2023-08-06T03:27:13.320Z,3.97
2023-08-06T03:29:41.722Z,4.63
2023-08-06T03:32:10.613Z,2.07
2023-08-06T03:34:39.035Z,2.50
2023-08-06T03:37:08.980Z,2.00
2023-08-06T03:39:37.335Z,5.63
2023-08-06T03:42:05.927Z,2.97
2023-08-06T03:44:34.290Z,3.07
2023-08-06T03:47:02.663Z,2.60
2023-08-06T03:49:31.042Z,2.23
2023-08-06T03:51:59.393Z,4.30
2023-08-06T03:54:29.088Z,2.40
2023-08-06T03:56:57.424Z,2.47
2023-08-06T03:59:25.785Z,3.63
2023-08-06T04:01:54.319Z,2.57
2023-08-06T04:04:22.952Z,2.73
2023-08-06T04:06:51.309Z,1.53
2023-08-06T04:09:19.707Z,5.00
2023-08-06T04:11:49.443Z,8.50
2023-08-06T04:14:17.816Z,2.13
2023-08-06T04:16:46.229Z,2.97
2023-08-06T04:19:14.677Z,11.13
2023-08-06T04:21:43.055Z,9.93
2023-08-06T04:24:11.398Z,2.13
2023-08-06T04:26:39.753Z,3.20
2023-08-06T04:29:09.468Z,2.93
2023-08-06T04:31:37.819Z,1.43
2023-08-06T04:34:06.232Z,3.40
2023-08-06T04:36:34.667Z,2.00
2023-08-06T04:39:03.081Z,2.90
2023-08-06T04:41:31.463Z,2.60
2023-08-06T04:43:59.833Z,1.90
2023-08-06T04:46:29.597Z,2.77
2023-08-06T04:48:58.015Z,1.50
2023-08-06T04:51:26.422Z,1.33
2023-08-06T04:53:54.839Z,3.13
2023-08-06T04:56:23.261Z,2.70
2023-08-06T04:58:51.666Z,1.33
2023-08-06T05:01:20.072Z,1.07
2023-08-06T05:03:50.340Z,2.40
2023-08-06T05:06:18.724Z,1.17
2023-08-06T05:08:47.073Z,1.63
2023-08-06T05:11:15.433Z,1.20
2023-08-06T05:13:43.813Z,2.83
2023-08-06T05:16:12.323Z,1.33
2023-08-06T05:18:40.715Z,0.90
2023-08-06T05:21:10.541Z,1.73
2023-08-06T05:23:38.899Z,2.63
2023-08-06T05:26:07.328Z,1.57
2023-08-06T05:28:35.692Z,1.43
2023-08-06T05:31:06.154Z,2.40
2023-08-06T05:33:34.512Z,2.67
2023-08-06T05:36:02.897Z,0.90
2023-08-06T05:38:32.651Z,2.20
2023-08-06T05:41:01.053Z,1.83
2023-08-06T05:43:29.711Z,7.63
2023-08-06T05:45:58.915Z,2.37
2023-08-06T05:48:28.953Z,4.70
2023-08-06T05:50:57.308Z,1.93
2023-08-06T05:53:25.668Z,3.70
2023-08-06T05:55:55.432Z,1.70
2023-08-06T05:58:25.366Z,3.43
2023-08-06T06:00:54.378Z,3.30
2023-08-06T06:03:22.768Z,2.60
2023-08-06T06:05:51.305Z,2.87
2023-08-06T06:08:19.658Z,2.83
2023-08-06T06:10:48.005Z,1.63
2023-08-06T06:13:17.737Z,6.17
2023-08-06T06:15:46.115Z,6.90
2023-08-06T06:18:14.484Z,2.50
2023-08-06T06:20:42.811Z,2.20
2023-08-06T06:23:11.233Z,1.13
2023-08-06T06:25:39.590Z,3.73
2023-08-06T06:28:07.960Z,1.00
2023-08-06T06:30:37.681Z,3.00
2023-08-06T06:33:07.141Z,1.67
2023-08-06T06:35:35.207Z,3.93
2023-08-06T06:38:03.733Z,1.17
2023-08-06T06:40:31.798Z,0.70
2023-08-06T06:43:00.319Z,1.23
2023-08-06T06:45:28.423Z,0.63
2023-08-06T06:47:58.030Z,1.30
2023-08-06T06:50:27.525Z,1.43
2023-08-06T06:52:55.786Z,1.30
2023-08-06T06:55:23.840Z,1.93
2023-08-06T06:57:51.892Z,0.83
2023-08-06T07:00:20.172Z,1.27
2023-08-06T07:02:50.722Z,0.70
2023-08-06T07:05:20.273Z,0.90
2023-08-06T07:07:48.341Z,1.27
2023-08-06T07:10:18.497Z,0.67
2023-08-06T07:12:46.867Z,4.53
2023-08-06T07:15:15.122Z,2.40
2023-08-06T07:17:43.188Z,2.10
2023-08-06T07:20:12.413Z,3.33
2023-08-06T07:22:41.913Z,3.20
2023-08-06T07:25:10.277Z,2.10
2023-08-06T07:27:38.631Z,0.80
2023-08-06T07:30:07.543Z,1.10
2023-08-06T07:32:35.894Z,1.40
2023-08-06T07:35:06.824Z,2.00
2023-08-06T07:37:34.882Z,2.67
2023-08-06T07:40:05.479Z,1.50
2023-08-06T07:42:33.569Z,2.93
2023-08-06T07:45:01.871Z,0.93
2023-08-06T07:47:31.219Z,0.50
2023-08-06T07:49:59.650Z,0.40
2023-08-06T07:52:29.029Z,0.40
2023-08-06T07:54:57.414Z,0.50
2023-08-06T07:57:26.903Z,1.13
2023-08-06T07:59:55.491Z,0.50
2023-08-06T08:02:23.592Z,0.60
2023-08-06T08:04:51.966Z,0.40
2023-08-06T08:07:20.747Z,0.80
2023-08-06T08:09:49.443Z,0.40
2023-08-06T08:12:17.526Z,0.50
2023-08-06T08:14:46.937Z,0.50
2023-08-06T08:17:15.039Z,0.90
2023-08-06T08:19:43.441Z,0.60
2023-08-06T08:22:11.654Z,0.57
2023-08-06T08:24:40.066Z,0.77
2023-08-06T08:27:08.164Z,1.30
2023-08-06T08:29:36.927Z,0.60
2023-08-06T08:32:07.862Z,0.87
2023-08-06T08:34:35.923Z,0.87
2023-08-06T08:37:04.006Z,1.27
2023-08-06T08:39:32.087Z,0.40
2023-08-06T08:42:00.281Z,0.50
2023-08-06T08:44:30.371Z,0.40
2023-08-06T08:46:59.605Z,0.70
2023-08-06T08:49:29.732Z,0.87
2023-08-06T08:51:59.302Z,6.70
2023-08-06T08:54:28.422Z,0.57
2023-08-06T08:56:57.894Z,1.13
2023-08-06T08:59:26.142Z,0.40
2023-08-06T09:01:55.925Z,0.40
2023-08-06T09:04:24.961Z,1.00
2023-08-06T09:06:58.990Z,0.40
2023-08-06T09:09:30.432Z,1.17
2023-08-06T09:12:02.999Z,0.97
2023-08-06T09:14:31.076Z,2.53
2023-08-06T09:16:59.652Z,0.70
2023-08-06T09:19:29.634Z,0.50
2023-08-06T09:21:59.363Z,0.47
2023-08-06T09:24:29.375Z,0.40
2023-08-06T09:26:59.393Z,0.40
2023-08-06T09:29:28.312Z,0.40
2023-08-06T09:31:56.927Z,0.37
2023-08-06T09:34:26.460Z,0.50
2023-08-06T09:36:55.786Z,0.40
2023-08-06T09:39:31.664Z,0.50
2023-08-06T09:42:02.227Z,0.40
2023-08-06T09:44:31.895Z,0.40
2023-08-06T09:47:01.756Z,0.90
2023-08-06T09:49:30.561Z,0.60
2023-08-06T09:52:01.073Z,0.80
2023-08-06T09:54:32.009Z,0.77
2023-08-06T09:57:01.619Z,0.50
2023-08-06T09:59:32.171Z,0.70
2023-08-06T10:02:01.981Z,0.40
2023-08-06T10:04:41.198Z,3.67
2023-08-06T10:07:12.914Z,0.50
2023-08-06T10:09:44.396Z,2.00
2023-08-06T10:12:14.212Z,2.13
2023-08-06T10:14:45.656Z,6.43
2023-08-06T10:17:15.273Z,0.50
2023-08-06T10:19:44.504Z,0.50
2023-08-06T10:22:14.850Z,0.60
2023-08-06T10:24:52.756Z,0.93
2023-08-06T10:27:26.195Z,0.63
2023-08-06T10:29:58.031Z,0.40
2023-08-06T10:32:44.411Z,0.70
2023-08-06T10:35:32.110Z,1.03
2023-08-06T10:38:03.499Z,0.50
2023-08-06T10:40:33.820Z,0.50
2023-08-06T10:43:02.954Z,0.50
2023-08-06T10:45:31.719Z,1.27
2023-08-06T10:48:00.288Z,1.23
2023-08-06T10:50:32.385Z,0.93
2023-08-06T10:53:01.153Z,0.40
2023-08-06T10:55:31.225Z,0.40
2023-08-06T10:58:05.106Z,0.40
2023-08-06T11:00:38.811Z,0.50
2023-08-06T11:03:13.847Z,0.60
2023-08-06T11:05:44.541Z,1.67
2023-08-06T11:08:13.049Z,0.53
2023-08-06T11:10:47.863Z,0.50
2023-08-06T11:13:24.189Z,0.50
2023-08-06T11:15:52.277Z,0.40
2023-08-06T11:18:20.405Z,1.43
2023-08-06T11:20:48.616Z,0.53
2023-08-06T11:23:17.213Z,0.50
2023-08-06T11:25:46.971Z,0.60
2023-08-06T11:28:15.056Z,0.40
2023-08-06T11:30:44.524Z,2.40
2023-08-06T11:33:12.618Z,1.80
2023-08-06T11:35:41.785Z,2.70
2023-08-06T11:38:10.126Z,0.50
2023-08-06T11:40:38.589Z,0.40
2023-08-06T11:43:08.804Z,0.40
2023-08-06T11:45:37.777Z,0.40
2023-08-06T11:48:09.555Z,0.50
2023-08-06T11:50:39.993Z,1.00
2023-08-06T11:53:08.301Z,0.50
2023-08-06T11:55:37.790Z,0.47
2023-08-06T11:58:06.680Z,0.57
2023-08-06T12:00:34.910Z,0.63
2023-08-06T12:03:03.264Z,0.43
2023-08-06T12:05:34.332Z,0.40
2023-08-06T12:08:03.514Z,0.50
2023-08-06T12:10:33.130Z,0.50
2023-08-06T12:13:01.882Z,0.50
2023-08-06T12:15:32.544Z,0.70
2023-08-06T12:18:01.745Z,1.37
2023-08-06T12:20:30.004Z,0.67
2023-08-06T12:22:59.460Z,0.97
2023-08-06T12:25:27.536Z,0.60
2023-08-06T12:27:55.613Z,1.03
2023-08-06T12:30:23.720Z,0.70
2023-08-06T12:32:52.867Z,0.90
2023-08-06T12:35:21.972Z,1.17
2023-08-06T12:37:53.439Z,2.00
2023-08-06T12:40:35.404Z,3.07
2023-08-06T12:43:04.623Z,2.33
2023-08-06T12:45:33.030Z,1.63
2023-08-06T12:48:04.654Z,0.83
2023-08-06T12:50:35.866Z,4.47
2023-08-06T12:53:05.758Z,2.13
2023-08-06T12:55:35.591Z,0.70
2023-08-06T12:58:04.006Z,1.07
2023-08-06T13:00:32.413Z,4.93
2023-08-06T13:03:00.920Z,0.93
2023-08-06T13:05:29.389Z,0.73
2023-08-06T13:07:58.070Z,0.90
2023-08-06T13:10:28.304Z,0.93
2023-08-06T13:12:58.175Z,0.87
2023-08-06T13:15:26.568Z,0.93
2023-08-06T13:17:54.998Z,0.80
2023-08-06T13:20:24.088Z,0.60
2023-08-06T13:22:54.451Z,0.80
2023-08-06T13:25:22.989Z,1.50
2023-08-06T13:27:51.369Z,0.77
2023-08-06T13:30:21.099Z,0.90
2023-08-06T13:32:49.494Z,0.70
2023-08-06T13:35:17.920Z,0.60
2023-08-06T13:37:46.315Z,0.53
2023-08-06T13:40:14.763Z,1.00
2023-08-06T13:42:43.165Z,1.00
2023-08-06T13:45:11.949Z,1.70
2023-08-06T13:47:41.808Z,0.60
2023-08-06T13:50:11.025Z,0.73
2023-08-06T13:52:39.407Z,0.90
2023-08-06T13:55:08.117Z,0.70
2023-08-06T13:57:37.400Z,1.20
2023-08-06T14:00:06.861Z,0.60
2023-08-06T14:02:35.299Z,0.77
2023-08-06T14:05:05.217Z,0.80
2023-08-06T14:07:33.572Z,1.10
2023-08-06T14:10:01.939Z,0.73
2023-08-06T14:12:30.373Z,2.40
2023-08-06T14:14:58.815Z,1.13
2023-08-06T14:17:27.207Z,0.87
2023-08-06T14:19:55.600Z,1.13
2023-08-06T14:22:25.946Z,0.77
2023-08-06T14:24:54.482Z,1.53
2023-08-06T14:27:22.803Z,0.80
2023-08-06T14:29:51.219Z,0.87
2023-08-06T14:32:20.582Z,4.70
2023-08-06T14:34:48.962Z,1.17
2023-08-06T14:37:17.828Z,0.60
2023-08-06T14:39:47.637Z,0.60
2023-08-06T14:42:15.987Z,2.20
2023-08-06T14:44:44.448Z,0.60
2023-08-06T14:47:12.887Z,0.60
2023-08-06T14:49:41.399Z,1.70
2023-08-06T14:52:09.910Z,0.50
2023-08-06T14:54:38.281Z,0.73
2023-08-06T14:57:09.335Z,1.27
2023-08-06T14:59:37.683Z,0.50
2023-08-06T15:02:06.105Z,0.53
2023-08-06T15:04:34.520Z,0.70
2023-08-06T15:07:02.862Z,0.63
2023-08-06T15:09:31.228Z,1.17
2023-08-06T15:12:01.163Z,0.60
2023-08-06T15:14:30.910Z,1.00
2023-08-06T15:16:59.304Z,0.70
2023-08-06T15:19:27.758Z,2.33
2023-08-06T15:21:56.178Z,3.20
2023-08-06T15:24:24.564Z,1.37
2023-08-06T15:26:53.510Z,1.70
2023-08-06T15:29:22.203Z,2.10
2023-08-06T15:31:51.966Z,0.80
2023-08-06T15:34:20.353Z,1.83
2023-08-06T15:36:48.804Z,0.80
2023-08-06T15:39:17.239Z,0.70
2023-08-06T15:41:45.587Z,1.63
2023-08-06T15:44:13.946Z,2.20
2023-08-06T15:46:42.279Z,0.70
2023-08-06T15:49:11.987Z,2.20
2023-08-06T15:51:40.341Z,0.60
2023-08-06T15:54:08.756Z,1.37
2023-08-06T15:56:37.120Z,0.53
2023-08-06T15:59:20.380Z,1.07
2023-08-06T16:01:48.775Z,0.73
2023-08-06T16:04:18.644Z,0.90
2023-08-06T16:06:47.063Z,0.80
2023-08-06T16:09:16.285Z,0.90
2023-08-06T16:11:44.681Z,1.03
2023-08-06T16:14:13.058Z,0.77
2023-08-06T16:16:43.654Z,0.60
2023-08-06T16:19:12.136Z,0.70
2023-08-06T16:21:42.010Z,0.70
2023-08-06T16:24:10.566Z,0.63
2023-08-06T16:26:38.976Z,1.00
2023-08-06T16:29:07.365Z,1.27
2023-08-06T16:31:35.794Z,0.93
2023-08-06T16:34:04.182Z,0.60
2023-08-06T16:36:32.705Z,0.80
2023-08-06T16:39:02.419Z,0.70
2023-08-06T16:41:30.768Z,0.70
2023-08-06T16:43:59.170Z,0.80
2023-08-06T16:46:27.536Z,0.63
2023-08-06T16:48:55.899Z,1.37
2023-08-06T16:51:24.334Z,0.90
2023-08-06T16:53:52.711Z,0.60
2023-08-06T16:56:22.465Z,0.70
2023-08-06T16:58:50.833Z,1.57
2023-08-06T17:01:19.282Z,1.10
2023-08-06T17:03:49.449Z,1.10
2023-08-06T17:06:17.973Z,0.70
2023-08-06T17:08:46.354Z,1.33
2023-08-06T17:11:14.780Z,1.00
2023-08-06T17:13:44.503Z,1.50
2023-08-06T17:16:13.318Z,0.97
2023-08-06T17:18:41.672Z,3.80
2023-08-06T17:21:10.041Z,1.90
2023-08-06T17:23:38.084Z,0.87
2023-08-06T17:26:06.160Z,1.00
2023-08-06T17:28:34.247Z,1.20
2023-08-06T17:31:04.115Z,1.60
2023-08-06T17:33:32.187Z,1.90
2023-08-06T17:36:00.433Z,1.43
2023-08-06T17:38:28.499Z,1.57
2023-08-06T17:40:57.818Z,1.37
2023-08-06T17:43:25.965Z,1.00
2023-08-06T17:45:54.125Z,1.13
2023-08-06T17:48:24.286Z,1.40
2023-08-06T17:50:52.714Z,0.90
2023-08-06T17:53:20.758Z,1.53
2023-08-06T17:55:49.230Z,0.87
2023-08-06T17:58:17.329Z,0.80
2023-08-06T18:00:49.771Z,1.27
2023-08-06T18:03:18.544Z,1.50
2023-08-06T18:05:48.215Z,1.20
2023-08-06T18:08:16.325Z,1.00
2023-08-06T18:10:44.402Z,1.77
2023-08-06T18:13:12.480Z,1.10
2023-08-06T18:15:41.413Z,1.30
2023-08-06T18:18:10.570Z,1.37
2023-08-06T18:20:38.748Z,1.27
2023-08-06T18:23:08.292Z,2.57
2023-08-06T18:25:36.747Z,1.00
2023-08-06T18:28:05.274Z,1.57
2023-08-06T18:30:34.853Z,1.00
2023-08-06T18:33:03.978Z,2.50
2023-08-06T18:35:32.936Z,1.60
2023-08-06T18:38:01.163Z,1.40
2023-08-06T18:40:31.693Z,1.80
2023-08-06T18:42:59.779Z,2.63
2023-08-06T18:45:27.879Z,2.97
2023-08-06T18:47:55.974Z,2.03
2023-08-06T18:50:24.240Z,1.07
2023-08-06T18:52:52.332Z,2.03
2023-08-06T18:55:20.597Z,1.63
2023-08-06T18:57:50.003Z,1.30
2023-08-06T19:00:18.361Z,2.00
2023-08-06T19:02:46.503Z,2.40
2023-08-06T19:05:14.705Z,1.37
2023-08-06T19:07:42.809Z,1.33
2023-08-06T19:10:11.564Z,1.50
2023-08-06T19:12:39.682Z,3.43
2023-08-06T19:15:10.314Z,3.53
2023-08-06T19:17:38.392Z,3.13
2023-08-06T19:20:07.515Z,2.00
2023-08-06T19:22:35.643Z,2.40
2023-08-06T19:25:03.766Z,4.37
2023-08-06T19:27:31.860Z,1.67
2023-08-06T19:29:59.954Z,2.43
2023-08-06T19:32:29.515Z,2.93
2023-08-06T19:34:57.797Z,5.30
2023-08-06T19:37:25.915Z,3.57
2023-08-06T19:39:54.000Z,1.77
2023-08-06T19:42:22.137Z,2.83
2023-08-06T19:44:50.435Z,4.23
2023-08-06T19:47:18.586Z,2.80
2023-08-06T19:49:48.199Z,2.07
2023-08-06T19:52:16.303Z,1.90
2023-08-06T19:54:44.442Z,1.77
2023-08-06T19:57:12.470Z,6.83
2023-08-06T19:59:40.573Z,1.53
2023-08-06T20:02:08.751Z,1.50
2023-08-06T20:04:37.000Z,1.63
2023-08-06T20:07:06.691Z,2.07
2023-08-06T20:09:34.793Z,1.70
2023-08-06T20:12:03.533Z,3.90
2023-08-06T20:14:31.742Z,2.50
2023-08-06T20:16:59.819Z,1.73
2023-08-06T20:19:27.896Z,1.87
2023-08-06T20:21:56.277Z,3.23
2023-08-06T20:24:25.893Z,2.33
2023-08-06T20:26:54.001Z,3.40
2023-08-06T20:29:22.289Z,8.43
2023-08-06T20:31:50.395Z,2.87
2023-08-06T20:34:18.503Z,2.87
2023-08-06T20:36:46.684Z,1.63
2023-08-06T20:39:14.756Z,1.83
2023-08-06T20:41:44.152Z,1.27
2023-08-06T20:44:12.211Z,3.60
2023-08-06T20:46:40.342Z,2.53
2023-08-06T20:49:08.445Z,4.43
2023-08-06T20:51:36.545Z,2.30
2023-08-06T20:54:04.628Z,1.43
2023-08-06T20:56:32.699Z,1.80
2023-08-06T20:59:02.235Z,2.30
2023-08-06T21:01:30.387Z,1.47
2023-08-06T21:03:58.502Z,1.87
2023-08-06T21:06:26.616Z,1.10
2023-08-06T21:08:54.671Z,2.10
2023-08-06T21:11:22.796Z,5.03
2023-08-06T21:13:50.893Z,3.70
2023-08-06T21:16:20.454Z,1.20
2023-08-06T21:18:48.551Z,3.20
2023-08-06T21:21:16.638Z,1.27
2023-08-06T21:23:44.777Z,2.60
2023-08-06T21:26:13.095Z,2.70
2023-08-06T21:28:41.205Z,3.83
2023-08-06T21:31:11.288Z,3.00
2023-08-06T21:33:42.129Z,1.80
2023-08-06T21:36:10.880Z,4.87
2023-08-06T21:38:40.753Z,5.07
2023-08-06T21:41:11.250Z,2.57
2023-08-06T21:43:41.113Z,1.50
2023-08-06T21:46:10.892Z,1.70
2023-08-06T21:48:42.859Z,2.20
2023-08-06T21:51:11.852Z,1.83
2023-08-06T21:53:40.696Z,2.93
2023-08-06T21:56:10.737Z,1.50
2023-08-06T21:58:39.792Z,1.33
2023-08-06T22:01:09.318Z,3.17
2023-08-06T22:03:38.595Z,1.60
2023-08-06T22:06:09.148Z,1.40
2023-08-06T22:08:37.336Z,1.20
2023-08-06T22:11:05.905Z,2.10
2023-08-06T22:13:34.124Z,1.50
2023-08-06T22:16:02.244Z,1.40
2023-08-06T22:18:30.361Z,2.93
2023-08-06T22:20:59.006Z,6.00
2023-08-06T22:23:29.097Z,1.50
2023-08-06T22:25:57.480Z,1.60
2023-08-06T22:28:26.488Z,1.70
2023-08-06T22:30:54.899Z,1.93
2023-08-06T22:33:23.497Z,9.07
2023-08-06T22:35:53.771Z,1.37
2023-08-06T22:38:22.000Z,1.50
2023-08-06T22:40:51.404Z,2.10
2023-08-06T22:43:19.530Z,6.70
2023-08-06T22:45:47.654Z,1.13
2023-08-06T22:48:15.730Z,1.97
2023-08-06T22:50:43.847Z,2.20
2023-08-06T22:53:11.882Z,1.30
2023-08-06T22:56:02.153Z,3.00
2023-08-06T22:58:29.446Z,2.83
2023-08-06T23:00:57.893Z,1.73
2023-08-06T23:03:26.716Z,2.40
2023-08-06T23:05:54.909Z,1.37
2023-08-06T23:08:23.013Z,7.00
2023-08-06T23:10:51.068Z,3.70
2023-08-06T23:13:19.272Z,2.77
2023-08-06T23:15:49.043Z,2.47
2023-08-06T23:18:17.187Z,1.97
2023-08-06T23:20:45.870Z,1.57
2023-08-06T23:23:13.974Z,1.57
2023-08-06T23:25:42.046Z,2.50
2023-08-06T23:28:10.143Z,1.50
2023-08-06T23:30:38.263Z,1.93
2023-08-06T23:33:07.728Z,6.60
2023-08-06T23:35:35.820Z,1.73
2023-08-06T23:38:03.894Z,2.37
2023-08-06T23:40:31.954Z,6.30
2023-08-06T23:43:00.048Z,2.23
2023-08-06T23:45:28.145Z,5.43
2023-08-06T23:47:56.373Z,1.10
2023-08-06T23:50:26.111Z,3.90
2023-08-06T23:52:54.174Z,1.50
2023-08-06T23:55:22.266Z,2.87
2023-08-06T23:57:50.331Z,1.23
